createdAt,value
2022-12-17T00:01:04.111Z,20.80
2022-12-17T00:02:24.443Z,19.60
2022-12-17T00:03:44.796Z,20.40
2022-12-17T00:05:05.101Z,19.17
2022-12-17T00:06:30.107Z,20.00
2022-12-17T00:07:50.324Z,20.30
2022-12-17T00:09:10.676Z,20.65
2022-12-17T00:10:31.267Z,20.23
2022-12-17T00:11:51.610Z,20.52
2022-12-17T00:13:12.098Z,20.13
2022-12-17T00:14:32.629Z,20.55
2022-12-17T00:15:53.005Z,19.70
2022-12-17T00:17:13.440Z,20.45
2022-12-17T00:18:33.893Z,19.60
2022-12-17T00:19:54.284Z,19.58
2022-12-17T00:21:19.462Z,21.25
2022-12-17T00:22:40.164Z,20.65
2022-12-17T00:24:00.578Z,21.40
2022-12-17T00:25:20.941Z,21.05
2022-12-17T00:26:41.378Z,19.73
2022-12-17T00:28:01.702Z,20.40
2022-12-17T00:29:22.121Z,19.42
2022-12-17T00:30:42.566Z,20.00
2022-12-17T00:32:03.332Z,21.50
2022-12-17T00:33:23.602Z,20.10
2022-12-17T00:34:43.851Z,20.23
2022-12-17T00:36:12.494Z,20.17
2022-12-17T00:37:32.915Z,21.05
2022-12-17T00:38:53.203Z,21.60
2022-12-17T00:40:13.958Z,22.02
2022-12-17T00:41:34.392Z,21.90
2022-12-17T00:42:56.448Z,20.95
2022-12-17T00:44:19.665Z,19.90
2022-12-17T00:45:40.007Z,19.83
2022-12-17T00:47:00.335Z,20.55
2022-12-17T00:48:20.566Z,22.10
2022-12-17T00:49:41.012Z,21.65
2022-12-17T00:51:01.413Z,21.02
2022-12-17T00:52:21.706Z,20.80
2022-12-17T00:53:42.884Z,20.85
2022-12-17T00:55:03.268Z,21.33
2022-12-17T00:56:23.824Z,21.15
2022-12-17T00:57:44.340Z,20.20
2022-12-17T00:59:05.022Z,21.80
2022-12-17T01:00:25.907Z,20.92
2022-12-17T01:01:46.514Z,22.00
2022-12-17T01:03:06.942Z,21.27
2022-12-17T01:04:27.251Z,20.73
2022-12-17T01:05:47.720Z,21.77
2022-12-17T01:07:08.180Z,21.20
2022-12-17T01:08:31.127Z,19.85
2022-12-17T01:09:51.603Z,20.85
2022-12-17T01:11:16.595Z,20.08
2022-12-17T01:12:36.861Z,21.30
2022-12-17T01:13:57.398Z,20.88
2022-12-17T01:15:18.092Z,19.77
2022-12-17T01:16:38.354Z,19.35
2022-12-17T01:17:58.790Z,19.92
2022-12-17T01:19:19.214Z,19.83
2022-12-17T01:20:39.756Z,20.45
2022-12-17T01:22:00.371Z,18.98
2022-12-17T01:23:20.914Z,19.85
2022-12-17T01:24:41.210Z,20.75
2022-12-17T01:26:01.577Z,20.20
2022-12-17T01:27:21.944Z,21.33
2022-12-17T01:28:43.543Z,20.00
2022-12-17T01:30:04.046Z,19.80
2022-12-17T01:31:24.671Z,19.88
2022-12-17T01:32:45.113Z,21.65
2022-12-17T01:34:05.485Z,20.25
2022-12-17T01:35:25.801Z,20.95
2022-12-17T01:36:46.308Z,22.08
2022-12-17T01:38:06.663Z,19.52
2022-12-17T01:39:26.963Z,19.17
2022-12-17T01:40:47.387Z,20.83
2022-12-17T01:42:07.906Z,20.00
2022-12-17T01:43:31.528Z,20.73
2022-12-17T01:44:57.539Z,20.00
2022-12-17T01:46:17.850Z,19.70
2022-12-17T01:47:38.329Z,20.00
2022-12-17T01:49:05.720Z,20.40
2022-12-17T01:50:26.824Z,19.52
2022-12-17T01:51:48.898Z,20.58
2022-12-17T01:53:14.196Z,20.20
2022-12-17T01:54:35.551Z,19.38
2022-12-17T01:55:55.884Z,19.67
2022-12-17T01:57:17.246Z,21.23
2022-12-17T01:58:37.815Z,20.77
2022-12-17T02:00:20.221Z,19.15
2022-12-17T02:01:40.783Z,19.83
2022-12-17T02:03:01.679Z,20.38
2022-12-17T02:04:21.917Z,19.48
2022-12-17T02:05:50.899Z,20.55
2022-12-17T02:07:34.231Z,20.20
2022-12-17T02:09:07.123Z,21.48
2022-12-17T02:10:56.439Z,19.27
2022-12-17T02:12:35.735Z,20.45
2022-12-17T02:13:59.448Z,21.08
2022-12-17T02:15:39.678Z,20.23
2022-12-17T02:17:06.822Z,19.80
2022-12-17T02:18:33.262Z,20.42
2022-12-17T02:20:15.300Z,19.98
2022-12-17T02:21:37.922Z,20.45
2022-12-17T02:23:13.240Z,20.27
2022-12-17T02:24:42.629Z,20.33
2022-12-17T02:26:30.299Z,21.15
2022-12-17T02:27:52.844Z,21.58
2022-12-17T02:29:15.851Z,20.45
2022-12-17T02:30:36.387Z,19.95
2022-12-17T02:32:00.585Z,20.73
2022-12-17T02:33:32.989Z,19.63
2022-12-17T02:35:02.771Z,19.92
2022-12-17T02:36:26.186Z,20.40
2022-12-17T02:37:46.566Z,20.80
2022-12-17T02:39:06.979Z,21.98
2022-12-17T02:40:27.724Z,20.08
2022-12-17T02:41:59.243Z,20.63
2022-12-17T02:43:20.138Z,19.40
2022-12-17T02:44:40.886Z,20.10
2022-12-17T02:46:01.206Z,19.98
2022-12-17T02:47:24.781Z,20.77
2022-12-17T02:48:53.302Z,20.55
2022-12-17T02:50:13.953Z,21.52
2022-12-17T02:51:34.445Z,20.80
2022-12-17T02:52:58.256Z,19.60
2022-12-17T02:54:22.287Z,20.98
2022-12-17T02:55:42.887Z,20.15
2022-12-17T02:57:03.301Z,19.38
2022-12-17T02:58:23.804Z,20.67
2022-12-17T02:59:44.215Z,20.50
2022-12-17T03:01:04.611Z,19.85
2022-12-17T03:02:25.081Z,20.77
2022-12-17T03:03:50.124Z,20.40
2022-12-17T03:05:42.835Z,20.20
2022-12-17T03:06:51.271Z,19.95
2022-12-17T03:08:11.804Z,19.60
2022-12-17T03:09:32.251Z,20.73
2022-12-17T03:10:52.588Z,20.38
2022-12-17T03:12:13.015Z,19.45
2022-12-17T03:13:47.554Z,19.35
2022-12-17T03:15:07.911Z,20.02
2022-12-17T03:16:35.662Z,19.85
2022-12-17T03:17:57.520Z,20.23
2022-12-17T03:19:18.167Z,19.48
2022-12-17T03:20:38.549Z,19.55
2022-12-17T03:21:58.969Z,20.38
2022-12-17T03:23:28.037Z,19.65
2022-12-17T03:24:48.529Z,20.02
2022-12-17T03:26:08.956Z,20.77
2022-12-17T03:27:29.507Z,20.85
2022-12-17T03:28:49.945Z,19.60
2022-12-17T03:30:10.541Z,19.80
2022-12-17T03:31:31.014Z,21.73
2022-12-17T03:32:51.125Z,20.10
2022-12-17T03:34:31.317Z,20.58
2022-12-17T03:35:51.369Z,20.30
2022-12-17T03:37:11.763Z,21.55
2022-12-17T03:38:32.201Z,21.63
2022-12-17T03:39:52.570Z,21.40
2022-12-17T03:41:13.030Z,20.67
2022-12-17T03:42:33.583Z,21.38
2022-12-17T03:43:54.035Z,21.02
2022-12-17T03:45:14.623Z,22.75
2022-12-17T03:46:35.128Z,21.65
2022-12-17T03:47:55.225Z,21.75
2022-12-17T03:49:15.574Z,22.40
2022-12-17T03:50:35.907Z,22.15
2022-12-17T03:51:56.328Z,22.67
2022-12-17T03:53:17.716Z,22.75
2022-12-17T03:54:38.047Z,21.77
2022-12-17T03:55:58.423Z,22.48
2022-12-17T03:57:35.525Z,23.67
2022-12-17T03:58:55.833Z,23.27
2022-12-17T04:00:16.263Z,22.50
2022-12-17T04:01:36.763Z,24.48
2022-12-17T04:02:57.158Z,23.20
2022-12-17T04:04:17.560Z,23.70
2022-12-17T04:05:37.926Z,23.55
2022-12-17T04:06:58.221Z,24.13
2022-12-17T04:08:18.628Z,24.40
2022-12-17T04:09:39.000Z,24.95
2022-12-17T04:10:59.497Z,26.63
2022-12-17T04:12:20.024Z,25.25
2022-12-17T04:13:41.216Z,25.80
2022-12-17T04:15:01.637Z,26.27
2022-12-17T04:16:22.310Z,24.30
2022-12-17T04:17:42.798Z,24.50
2022-12-17T04:19:03.273Z,25.52
2022-12-17T04:20:24.166Z,24.48
2022-12-17T04:21:58.263Z,23.70
2022-12-17T04:23:18.388Z,22.75
2022-12-17T04:24:38.707Z,24.58
2022-12-17T04:25:59.016Z,25.17
2022-12-17T04:27:19.395Z,24.70
2022-12-17T04:28:39.858Z,25.38
2022-12-17T04:30:00.279Z,26.40
2022-12-17T04:31:20.847Z,24.70
2022-12-17T04:32:51.914Z,25.50
2022-12-17T04:34:12.051Z,25.15
2022-12-17T04:35:32.592Z,24.13
2022-12-17T04:36:52.963Z,24.33
2022-12-17T04:38:13.322Z,24.60
2022-12-17T04:39:33.727Z,21.08
2022-12-17T04:40:54.229Z,23.67
2022-12-17T04:42:14.637Z,23.95
2022-12-17T04:43:35.510Z,23.92
2022-12-17T04:44:55.970Z,25.25
2022-12-17T04:46:33.777Z,23.38
2022-12-17T04:47:54.234Z,24.48
2022-12-17T04:49:14.588Z,23.30
2022-12-17T04:50:36.486Z,25.10
2022-12-17T04:51:56.727Z,24.95
2022-12-17T04:53:21.476Z,26.23
2022-12-17T04:54:42.039Z,26.92
2022-12-17T04:56:02.483Z,24.63
2022-12-17T04:57:23.168Z,25.63
2022-12-17T04:58:43.633Z,25.40
2022-12-17T05:00:04.019Z,24.75
2022-12-17T05:01:24.503Z,24.52
2022-12-17T05:02:44.880Z,24.00
2022-12-17T05:04:05.239Z,22.98
2022-12-17T05:05:26.250Z,24.08
2022-12-17T05:06:46.664Z,24.73
2022-12-17T05:08:07.205Z,24.65
2022-12-17T05:09:27.674Z,26.27
2022-12-17T05:10:47.992Z,25.42
2022-12-17T05:12:28.268Z,23.48
2022-12-17T05:13:48.413Z,23.70
2022-12-17T05:15:08.483Z,24.90
2022-12-17T05:16:28.968Z,23.70
2022-12-17T05:17:49.221Z,25.27
2022-12-17T05:19:09.574Z,24.85
2022-12-17T05:20:30.053Z,24.67
2022-12-17T05:21:50.560Z,25.17
2022-12-17T05:23:11.023Z,24.83
2022-12-17T05:24:31.358Z,24.98
2022-12-17T05:25:51.647Z,24.85
2022-12-17T05:27:12.113Z,26.02
2022-12-17T05:28:32.468Z,29.15
2022-12-17T05:29:53.251Z,27.88
2022-12-17T05:31:14.701Z,25.00
2022-12-17T05:32:34.919Z,25.05
2022-12-17T05:33:55.285Z,27.35
2022-12-17T05:35:15.717Z,26.38
2022-12-17T05:36:36.108Z,26.02
2022-12-17T05:37:56.634Z,26.00
2022-12-17T05:39:17.132Z,26.25
2022-12-17T05:40:37.628Z,25.52
2022-12-17T05:41:57.902Z,26.00
2022-12-17T05:43:20.769Z,25.27
2022-12-17T05:44:41.194Z,25.15
2022-12-17T05:46:02.312Z,25.55
2022-12-17T05:47:22.625Z,24.95
2022-12-17T05:48:43.118Z,24.92
2022-12-17T05:50:03.454Z,26.33
2022-12-17T05:51:24.006Z,25.70
2022-12-17T05:52:44.372Z,26.60
2022-12-17T05:54:04.799Z,26.23
2022-12-17T05:55:25.315Z,27.23
2022-12-17T05:56:45.625Z,25.00
2022-12-17T05:58:05.969Z,26.73
2022-12-17T05:59:26.209Z,25.80
2022-12-17T06:00:46.512Z,25.35
2022-12-17T06:02:06.937Z,25.33
2022-12-17T06:03:28.258Z,25.83
2022-12-17T06:04:48.500Z,25.00
2022-12-17T06:06:13.466Z,25.60
2022-12-17T06:07:50.620Z,25.65
2022-12-17T06:09:10.868Z,25.33
2022-12-17T06:10:30.789Z,24.95
2022-12-17T06:11:51.113Z,23.60
2022-12-17T06:13:15.154Z,24.50
2022-12-17T06:14:35.488Z,23.83
2022-12-17T06:15:55.796Z,24.42
2022-12-17T06:17:16.224Z,22.90
2022-12-17T06:18:36.594Z,24.15
2022-12-17T06:19:57.043Z,23.00
2022-12-17T06:21:17.490Z,22.88
2022-12-17T06:22:37.859Z,21.98
2022-12-17T06:23:58.340Z,21.52
2022-12-17T06:26:56.812Z,20.75
2022-12-17T06:28:18.779Z,21.40
2022-12-17T06:29:39.104Z,20.65
2022-12-17T06:30:59.549Z,21.45
2022-12-17T06:32:19.931Z,22.40
2022-12-17T06:33:40.355Z,27.05
2022-12-17T06:35:00.976Z,23.25
2022-12-17T06:36:22.878Z,19.80
2022-12-17T06:37:43.134Z,21.80
2022-12-17T06:39:03.446Z,20.38
2022-12-17T06:40:24.379Z,22.60
2022-12-17T06:41:44.806Z,21.13
2022-12-17T06:43:12.250Z,20.75
2022-12-17T06:44:32.589Z,21.80
2022-12-17T06:45:53.008Z,20.25
2022-12-17T06:47:13.546Z,20.60
2022-12-17T06:48:33.877Z,20.92
2022-12-17T06:49:59.511Z,21.65
2022-12-17T06:51:21.630Z,20.83
2022-12-17T06:52:41.886Z,20.85
2022-12-17T06:54:02.315Z,19.73
2022-12-17T06:55:22.772Z,21.33
2022-12-17T06:56:43.309Z,20.05
2022-12-17T06:58:03.550Z,20.40
2022-12-17T06:59:23.834Z,20.80
2022-12-17T07:00:44.233Z,22.95
2022-12-17T07:02:04.746Z,20.83
2022-12-17T07:03:25.176Z,20.17
2022-12-17T07:04:45.728Z,19.38
2022-12-17T07:06:06.045Z,20.65
2022-12-17T07:07:26.462Z,19.25
2022-12-17T07:08:46.985Z,19.90
2022-12-17T07:10:13.682Z,19.25
2022-12-17T07:11:34.548Z,18.60
2022-12-17T07:12:55.028Z,19.08
2022-12-17T07:14:15.486Z,21.65
2022-12-17T07:15:35.913Z,20.60
2022-12-17T07:16:56.300Z,20.33
2022-12-17T07:18:21.213Z,21.13
2022-12-17T07:19:41.692Z,18.67
2022-12-17T07:21:02.064Z,21.08
2022-12-17T07:22:22.583Z,19.65
2022-12-17T07:23:43.057Z,20.33
2022-12-17T07:25:03.425Z,20.60
2022-12-17T07:26:23.817Z,21.10
2022-12-17T07:27:44.253Z,21.15
2022-12-17T07:29:05.128Z,20.83
2022-12-17T07:30:25.993Z,20.00
2022-12-17T07:31:46.367Z,20.30
2022-12-17T07:33:06.749Z,21.48
2022-12-17T07:34:27.091Z,20.75
2022-12-17T07:35:47.549Z,19.52
2022-12-17T07:37:08.004Z,20.25
2022-12-17T07:38:29.622Z,22.52
2022-12-17T07:39:49.982Z,20.15
2022-12-17T07:41:10.410Z,20.80
2022-12-17T07:42:30.841Z,20.73
2022-12-17T07:43:53.124Z,21.17
2022-12-17T07:45:13.567Z,21.33
2022-12-17T07:46:33.909Z,22.95
2022-12-17T07:47:54.357Z,20.40
2022-12-17T07:49:14.819Z,22.25
2022-12-17T07:50:35.418Z,21.88
2022-12-17T07:51:55.808Z,21.58
2022-12-17T07:53:19.817Z,21.77
2022-12-17T07:54:40.163Z,22.02
2022-12-17T07:56:00.700Z,21.85
2022-12-17T07:57:21.193Z,21.80
2022-12-17T07:58:41.601Z,22.38
2022-12-17T08:00:01.869Z,20.95
2022-12-17T08:01:22.459Z,23.00
2022-12-17T08:02:42.975Z,21.75
2022-12-17T08:04:03.446Z,22.42
2022-12-17T08:05:23.945Z,22.58
2022-12-17T08:06:44.371Z,21.88
2022-12-17T08:08:04.751Z,21.08
2022-12-17T08:09:25.147Z,20.27
2022-12-17T08:10:45.531Z,20.90
2022-12-17T08:12:06.053Z,22.20
2022-12-17T08:13:26.465Z,20.42
2022-12-17T08:14:47.029Z,20.33
2022-12-17T08:16:08.052Z,21.58
2022-12-17T08:17:28.619Z,20.90
2022-12-17T08:18:49.084Z,19.75
2022-12-17T08:20:09.529Z,19.08
2022-12-17T08:21:29.877Z,20.05
2022-12-17T08:22:50.274Z,20.80
2022-12-17T08:24:10.623Z,21.35
2022-12-17T08:25:31.166Z,19.27
2022-12-17T08:26:51.400Z,19.75
2022-12-17T08:28:48.593Z,22.60
2022-12-17T08:29:56.484Z,18.88
2022-12-17T08:31:17.474Z,19.10
2022-12-17T08:32:38.175Z,19.75
2022-12-17T08:34:02.265Z,20.45
2022-12-17T08:35:25.265Z,19.98
2022-12-17T08:36:45.619Z,20.08
2022-12-17T08:38:05.927Z,20.40
2022-12-17T08:39:26.407Z,21.70
2022-12-17T08:40:46.831Z,20.48
2022-12-17T08:42:07.452Z,20.90
2022-12-17T08:43:27.833Z,21.25
2022-12-17T08:44:48.112Z,21.73
2022-12-17T08:46:10.271Z,20.80
2022-12-17T08:47:30.721Z,20.92
2022-12-17T08:48:51.243Z,22.00
2022-12-17T08:50:11.675Z,20.77
2022-12-17T08:51:32.146Z,22.65
2022-12-17T08:52:52.565Z,21.88
2022-12-17T08:54:12.919Z,20.98
2022-12-17T08:55:34.865Z,20.80
2022-12-17T08:56:55.259Z,21.98
2022-12-17T08:58:18.118Z,20.40
2022-12-17T08:59:38.486Z,20.85
2022-12-17T09:00:59.400Z,19.63
2022-12-17T09:02:19.948Z,20.40
2022-12-17T09:03:40.968Z,20.05
2022-12-17T09:05:01.592Z,19.20
2022-12-17T09:06:22.288Z,19.45
2022-12-17T09:07:42.497Z,19.45
2022-12-17T09:09:02.776Z,21.42
2022-12-17T09:10:23.685Z,19.52
2022-12-17T09:11:44.196Z,21.27
2022-12-17T09:13:05.368Z,20.38
2022-12-17T09:14:25.656Z,20.15
2022-12-17T09:15:46.014Z,21.75
2022-12-17T09:17:06.488Z,22.30
2022-12-17T09:18:46.436Z,21.48
2022-12-17T09:20:06.650Z,21.90
2022-12-17T09:21:26.976Z,22.70
2022-12-17T09:22:47.593Z,24.33
2022-12-17T09:24:07.568Z,23.55
2022-12-17T09:25:27.851Z,20.70
2022-12-17T09:26:48.422Z,22.83
2022-12-17T09:28:08.857Z,21.35
2022-12-17T09:29:29.363Z,22.15
2022-12-17T09:30:49.806Z,21.70
2022-12-17T09:32:10.305Z,22.00
2022-12-17T09:33:37.650Z,23.55
2022-12-17T09:34:58.208Z,22.50
2022-12-17T09:36:22.057Z,22.92
2022-12-17T09:37:42.404Z,21.70
2022-12-17T09:39:03.033Z,20.80
2022-12-17T09:40:23.909Z,20.10
2022-12-17T09:41:52.358Z,20.48
2022-12-17T09:43:24.835Z,20.95
2022-12-17T09:44:57.238Z,21.08
2022-12-17T09:46:40.042Z,19.00
2022-12-17T09:48:15.544Z,19.30
2022-12-17T09:49:45.189Z,19.05
2022-12-17T09:51:08.545Z,19.13
2022-12-17T09:52:51.654Z,20.08
2022-12-17T09:54:12.280Z,21.23
2022-12-17T09:55:47.025Z,19.60
2022-12-17T09:57:09.044Z,19.67
2022-12-17T09:58:37.196Z,18.40
2022-12-17T09:59:57.488Z,19.23
2022-12-17T10:01:17.912Z,19.17
2022-12-17T10:02:44.581Z,18.58
2022-12-17T10:04:06.476Z,19.60
2022-12-17T10:05:57.876Z,19.38
2022-12-17T10:07:19.367Z,18.98
2022-12-17T10:08:40.320Z,19.38
2022-12-17T10:10:00.661Z,18.70
2022-12-17T10:11:40.949Z,19.90
2022-12-17T10:13:01.413Z,18.30
2022-12-17T10:14:29.312Z,19.80
2022-12-17T10:15:49.829Z,17.70
2022-12-17T10:17:12.259Z,18.60
2022-12-17T10:18:34.242Z,17.15
2022-12-17T10:19:58.237Z,17.67
2022-12-17T10:21:23.525Z,17.67
2022-12-17T10:22:43.881Z,19.73
2022-12-17T10:24:04.125Z,19.13
2022-12-17T10:25:34.574Z,18.30
2022-12-17T10:26:55.292Z,19.02
2022-12-17T10:28:20.990Z,15.88
2022-12-17T10:29:47.795Z,16.52
2022-12-17T10:31:09.109Z,17.23
2022-12-17T10:32:37.539Z,23.77
2022-12-17T10:33:59.494Z,16.60
2022-12-17T10:35:40.257Z,15.93
2022-12-17T10:37:08.962Z,12.55
2022-12-17T10:38:44.977Z,15.45
2022-12-17T10:40:17.309Z,15.40
2022-12-17T10:41:43.261Z,13.30
2022-12-17T10:43:04.542Z,14.13
2022-12-17T10:44:45.399Z,14.07
2022-12-17T10:46:15.288Z,13.50
2022-12-17T10:47:44.141Z,14.30
2022-12-17T10:49:09.741Z,14.52
2022-12-17T10:50:42.361Z,13.73
2022-12-17T10:52:02.895Z,14.75
2022-12-17T10:53:35.182Z,13.38
2022-12-17T10:54:55.893Z,13.98
2022-12-17T10:56:19.280Z,16.17
2022-12-17T10:57:50.691Z,14.75
2022-12-17T10:59:12.641Z,14.52
2022-12-17T11:00:49.145Z,13.30
2022-12-17T11:02:16.496Z,14.60
2022-12-17T11:04:03.544Z,13.00
2022-12-17T11:05:33.129Z,14.43
2022-12-17T11:07:05.747Z,15.13
2022-12-17T11:08:26.687Z,12.82
2022-12-17T11:10:09.145Z,13.07
2022-12-17T11:11:31.565Z,13.50
2022-12-17T11:12:58.200Z,14.23
2022-12-17T11:14:22.473Z,14.65
2022-12-17T11:15:55.175Z,14.05
2022-12-17T11:17:20.947Z,13.48
2022-12-17T11:18:47.039Z,13.82
2022-12-17T11:20:21.877Z,14.90
2022-12-17T11:21:46.693Z,15.32
2022-12-17T11:23:11.004Z,14.13
2022-12-17T11:24:39.748Z,13.23
2022-12-17T11:26:08.788Z,14.02
2022-12-17T11:27:36.667Z,13.43
2022-12-17T11:28:57.771Z,15.73
2022-12-17T11:30:18.343Z,14.65
2022-12-17T11:32:03.088Z,14.88
2022-12-17T11:33:33.832Z,13.93
2022-12-17T11:35:16.047Z,14.70
2022-12-17T11:36:47.968Z,13.80
2022-12-17T11:38:29.876Z,13.52
2022-12-17T11:40:03.274Z,13.55
2022-12-17T11:41:36.821Z,15.50
2022-12-17T11:43:07.799Z,14.95
2022-12-17T11:44:37.901Z,15.27
2022-12-17T11:46:21.712Z,15.30
2022-12-17T11:47:48.168Z,15.57
2022-12-17T11:49:22.853Z,14.43
2022-12-17T11:50:56.364Z,14.60
2022-12-17T11:52:42.771Z,14.73
2022-12-17T11:54:18.010Z,13.88
2022-12-17T11:56:06.856Z,12.88
2022-12-17T11:57:57.912Z,13.95
2022-12-17T11:59:38.366Z,13.65
2022-12-17T12:01:21.411Z,13.52
2022-12-17T12:02:50.117Z,13.25
2022-12-17T12:04:25.767Z,14.10
2022-12-17T12:06:00.918Z,14.00
2022-12-17T12:07:46.040Z,13.10
2022-12-17T12:09:41.576Z,13.65
2022-12-17T12:11:18.911Z,13.07
2022-12-17T12:12:59.363Z,13.45
2022-12-17T12:14:55.126Z,15.95
2022-12-17T12:16:30.190Z,13.35
2022-12-17T12:18:10.937Z,14.10
2022-12-17T12:19:45.536Z,14.05
2022-12-17T12:21:28.885Z,13.82
2022-12-17T12:23:00.316Z,13.25
2022-12-17T12:24:45.572Z,13.93
2022-12-17T12:26:30.768Z,13.38
2022-12-17T12:29:06.494Z,14.75
2022-12-17T12:30:42.650Z,13.80
2022-12-17T12:32:20.658Z,14.02
2022-12-17T12:34:11.649Z,12.88
2022-12-17T12:35:36.948Z,13.45
2022-12-17T12:37:04.706Z,13.85
2022-12-17T12:38:46.131Z,14.57
2022-12-17T12:40:18.767Z,14.45
2022-12-17T12:41:54.511Z,14.85
2022-12-17T12:43:47.347Z,15.30
2022-12-17T12:45:41.763Z,13.32
2022-12-17T12:47:21.063Z,13.80
2022-12-17T12:49:09.215Z,14.60
2022-12-17T12:50:58.663Z,13.95
2022-12-17T12:52:19.586Z,14.30
2022-12-17T12:53:39.947Z,13.75
2022-12-17T12:55:06.493Z,14.85
2022-12-17T12:56:45.393Z,13.93
2022-12-17T12:58:17.151Z,14.68
2022-12-17T12:59:48.803Z,14.00
2022-12-17T13:01:09.542Z,15.90
2022-12-17T13:02:39.008Z,13.52
2022-12-17T13:04:11.763Z,15.15
2022-12-17T13:05:34.280Z,14.23
2022-12-17T13:06:55.074Z,15.23
2022-12-17T13:08:08.384Z,14.02
2022-12-17T13:09:15.719Z,14.23
2022-12-17T13:10:29.382Z,13.35
2022-12-17T13:11:37.795Z,14.98
2022-12-17T13:12:47.040Z,14.20
2022-12-17T13:13:56.074Z,16.10
2022-12-17T13:15:06.820Z,15.60
2022-12-17T13:16:33.012Z,15.05
2022-12-17T13:17:38.498Z,14.82
2022-12-17T13:18:41.076Z,14.38
2022-12-17T13:20:08.734Z,15.63
2022-12-17T13:21:16.466Z,14.68
2022-12-17T13:22:23.974Z,15.27
2022-12-17T13:23:30.524Z,14.80
2022-12-17T13:24:32.285Z,16.17
2022-12-17T13:25:40.378Z,14.88
2022-12-17T13:26:42.229Z,15.57
2022-12-17T13:27:44.386Z,15.52
2022-12-17T13:29:03.093Z,14.70
2022-12-17T13:32:19.957Z,15.57
2022-12-17T13:33:25.652Z,15.73
2022-12-17T13:34:45.381Z,15.68
2022-12-17T13:36:14.964Z,15.55
2022-12-17T13:37:28.584Z,15.43
2022-12-17T13:39:05.765Z,15.50
2022-12-17T13:40:34.240Z,14.27
2022-12-17T13:41:38.767Z,14.88
2022-12-17T13:42:40.706Z,14.95
2022-12-17T13:43:51.474Z,14.73
2022-12-17T13:44:53.386Z,14.25
2022-12-17T13:45:55.754Z,14.63
2022-12-17T13:48:28.679Z,14.80
2022-12-17T13:49:31.952Z,14.18
2022-12-17T13:50:35.528Z,16.05
2022-12-17T13:51:38.259Z,14.50
2022-12-17T13:52:40.269Z,15.57
2022-12-17T13:53:52.971Z,14.68
2022-12-17T13:55:06.290Z,16.70
2022-12-17T13:56:10.503Z,14.95
2022-12-17T13:57:22.176Z,16.98
2022-12-17T13:58:32.766Z,15.00
2022-12-17T13:59:34.786Z,15.45
2022-12-17T14:00:36.772Z,16.55
2022-12-17T14:01:50.494Z,15.93
2022-12-17T14:02:53.168Z,16.63
2022-12-17T14:04:07.619Z,15.70
2022-12-17T14:05:42.395Z,15.00
2022-12-17T14:06:45.281Z,16.10
2022-12-17T14:07:47.233Z,15.50
2022-12-17T14:08:51.340Z,14.82
2022-12-17T14:09:59.435Z,15.20
2022-12-17T14:11:20.640Z,15.82
2022-12-17T14:12:25.658Z,15.63
2022-12-17T14:13:27.719Z,15.00
2022-12-17T14:14:34.791Z,16.10
2022-12-17T14:15:37.067Z,16.25
2022-12-17T14:16:46.075Z,15.55
2022-12-17T14:17:52.529Z,15.43
2022-12-17T14:18:57.083Z,15.73
2022-12-17T14:20:07.990Z,16.27
2022-12-17T14:21:10.533Z,15.70
2022-12-17T14:22:37.145Z,15.60
2022-12-17T14:23:41.228Z,15.48
2022-12-17T14:24:43.026Z,15.65
2022-12-17T14:25:44.951Z,14.57
2022-12-17T14:26:49.366Z,14.73
2022-12-17T14:28:02.794Z,15.25
2022-12-17T14:29:14.152Z,16.33
2022-12-17T14:31:02.459Z,15.88
2022-12-17T14:32:21.270Z,15.80
2022-12-17T14:33:29.403Z,15.25
2022-12-17T14:34:41.526Z,15.05
2022-12-17T14:35:55.045Z,14.32
2022-12-17T14:37:00.316Z,13.93
2022-12-17T14:38:02.169Z,14.00
2022-12-17T14:39:15.248Z,14.70
2022-12-17T14:40:16.995Z,14.07
2022-12-17T14:41:37.551Z,13.50
2022-12-17T14:42:39.271Z,13.18
2022-12-17T14:43:41.313Z,14.07
2022-12-17T14:45:07.848Z,13.23
2022-12-17T14:46:21.100Z,12.90
2022-12-17T14:47:27.048Z,13.60
2022-12-17T14:48:48.705Z,13.40
2022-12-17T14:49:56.086Z,13.52
2022-12-17T14:50:57.761Z,13.35
2022-12-17T14:51:59.955Z,14.77
2022-12-17T14:53:22.871Z,13.43
2022-12-17T14:54:26.057Z,13.90
2022-12-17T14:55:58.580Z,13.90
2022-12-17T14:57:05.331Z,14.95
2022-12-17T14:58:13.020Z,14.48
2022-12-17T14:59:37.217Z,14.07
2022-12-17T15:00:40.900Z,14.90
2022-12-17T15:01:42.712Z,16.92
2022-12-17T15:02:48.272Z,15.30
2022-12-17T15:03:50.351Z,14.00
2022-12-17T15:04:56.029Z,14.75
2022-12-17T15:06:06.701Z,14.30
2022-12-17T15:07:17.736Z,14.02
2022-12-17T15:08:20.600Z,13.48
2022-12-17T15:09:22.234Z,14.80
2022-12-17T15:10:23.881Z,13.68
2022-12-17T15:11:25.468Z,14.40
2022-12-17T15:12:27.902Z,14.57
2022-12-17T15:13:29.524Z,14.27
2022-12-17T15:14:31.130Z,14.45
2022-12-17T15:15:32.743Z,16.95
2022-12-17T15:16:34.472Z,15.45
2022-12-17T15:17:36.139Z,18.13
2022-12-17T15:18:38.037Z,17.42
2022-12-17T15:19:39.864Z,18.52
2022-12-17T15:20:41.998Z,16.67
2022-12-17T15:21:43.720Z,16.13
2022-12-17T15:22:46.126Z,17.30
2022-12-17T15:23:48.588Z,15.02
2022-12-17T15:24:50.399Z,17.27
2022-12-17T15:25:53.879Z,15.75
2022-12-17T15:26:55.494Z,15.75
2022-12-17T15:27:57.239Z,16.58
2022-12-17T15:28:58.861Z,15.70
2022-12-17T15:30:00.688Z,16.08
2022-12-17T15:31:02.430Z,15.88
2022-12-17T15:32:04.397Z,16.27
2022-12-17T15:33:07.553Z,16.15
2022-12-17T15:34:11.058Z,16.02
2022-12-17T15:35:14.047Z,15.77
2022-12-17T15:36:15.678Z,15.00
2022-12-17T15:37:23.949Z,16.40
2022-12-17T15:38:27.375Z,16.20
2022-12-17T15:39:29.059Z,15.77
2022-12-17T15:40:30.864Z,16.60
2022-12-17T15:41:51.304Z,16.35
2022-12-17T15:43:11.344Z,18.38
2022-12-17T15:44:13.204Z,19.42
2022-12-17T15:45:14.972Z,17.92
2022-12-17T15:46:17.339Z,17.42
2022-12-17T15:47:19.045Z,17.35
2022-12-17T15:48:23.275Z,16.20
2022-12-17T15:49:24.876Z,16.77
2022-12-17T15:50:26.495Z,17.27
2022-12-17T15:51:28.131Z,16.33
2022-12-17T15:52:29.793Z,16.55
2022-12-17T15:53:31.395Z,15.32
2022-12-17T15:54:32.984Z,14.98
2022-12-17T15:55:34.807Z,15.20
2022-12-17T15:56:37.172Z,15.05
2022-12-17T15:57:38.832Z,15.80
2022-12-17T15:58:40.475Z,17.23
2022-12-17T15:59:42.111Z,16.10
2022-12-17T16:00:43.718Z,18.00
2022-12-17T16:01:45.544Z,16.55
2022-12-17T16:02:49.250Z,15.10
2022-12-17T16:03:51.103Z,16.08
2022-12-17T16:04:52.816Z,15.20
2022-12-17T16:05:54.436Z,16.42
2022-12-17T16:06:56.059Z,15.75
2022-12-17T16:08:02.155Z,16.83
2022-12-17T16:09:04.680Z,15.60
2022-12-17T16:10:06.938Z,16.17
2022-12-17T16:11:10.171Z,16.77
2022-12-17T16:12:11.776Z,17.88
2022-12-17T16:13:13.412Z,16.08
2022-12-17T16:14:15.288Z,16.90
2022-12-17T16:15:16.974Z,16.35
2022-12-17T16:16:18.665Z,16.10
2022-12-17T16:17:20.770Z,16.58
2022-12-17T16:18:23.681Z,17.85
2022-12-17T16:19:25.308Z,17.10
2022-12-17T16:20:26.930Z,17.90
2022-12-17T16:21:28.943Z,16.95
2022-12-17T16:22:30.516Z,18.25
2022-12-17T16:23:32.564Z,16.77
2022-12-17T16:24:34.173Z,17.70
2022-12-17T16:25:35.781Z,17.63
2022-12-17T16:26:38.063Z,17.30
2022-12-17T16:27:39.670Z,16.58
2022-12-17T16:28:41.695Z,16.85
2022-12-17T16:29:43.346Z,18.95
2022-12-17T16:30:45.024Z,18.45
2022-12-17T16:31:46.678Z,19.05
2022-12-17T16:32:48.303Z,17.85
2022-12-17T16:33:50.281Z,18.17
2022-12-17T16:34:51.940Z,18.20
2022-12-17T16:35:54.135Z,18.50
2022-12-17T16:36:55.741Z,20.42
2022-12-17T16:37:57.454Z,19.60
2022-12-17T16:38:59.255Z,19.40
2022-12-17T16:40:01.116Z,18.70
2022-12-17T16:41:03.481Z,19.15
2022-12-17T16:42:05.400Z,18.95
2022-12-17T16:43:06.993Z,19.85
2022-12-17T16:44:08.706Z,21.45
2022-12-17T16:45:10.563Z,20.80
2022-12-17T16:46:26.183Z,19.73
2022-12-17T16:47:27.797Z,20.92
2022-12-17T16:48:29.426Z,22.15
2022-12-17T16:49:31.115Z,22.25
2022-12-17T16:50:32.793Z,23.08
2022-12-17T16:51:34.791Z,22.42
2022-12-17T16:52:36.410Z,21.83
2022-12-17T16:53:37.995Z,21.02
2022-12-17T16:54:39.609Z,20.50
2022-12-17T16:55:42.778Z,20.55
2022-12-17T16:56:45.870Z,21.80
2022-12-17T16:57:47.520Z,19.92
2022-12-17T16:58:50.001Z,20.25
2022-12-17T16:59:51.737Z,19.45
2022-12-17T17:00:56.386Z,19.83
2022-12-17T17:01:58.247Z,19.85
2022-12-17T17:03:00.120Z,19.23
2022-12-17T17:04:03.204Z,19.63
2022-12-17T17:05:05.200Z,20.83
2022-12-17T17:06:07.748Z,25.20
2022-12-17T17:07:09.351Z,26.40